Ashby, Massachusetts
Current Conditions -  °F | °C
As of 6:52 PM on Friday 19 Dec 2014 (Local Time) from KFIT Reporting Station
Few Clouds Few Clouds  
Wind Chill: 22°   Ceiling: Unl
Heat Index: 31°   Visibility: 10mi
Dew Point: 19°   Wind: 10mph
Humidity: 61%   Direction: 330°NNW
Pressure: 30.07"   Gusts: NA
Location:  42.68°N, 71.82°W
Report Text: KFIT 192352Z AUTO 33009KT 10SM FEW030 M01/M07 A3007 RMK AO2 SLP188 T10061072 10017 21006 51021
Loading
Personal Weather Stations






























Interactive Weather Map New forecast layout! Learn more

10-Day Weather Forecast

Advertisements
Track Severe Weather on mobile